map of NSY home
Great Circle Mapper logo
NSY - Airport
Location
City:  Sigonella, Sicily, Italy
Name:NAS Sigonella
ICAO / IATA:LICZ / NSY

Details
Type:Airport (Aerodrome, Airfield)
Use:Military, International (customs port of entry)
Latitude:3724'06"N (37.401664)
Longitude:1455'20"E (14.922358)
Datum:WGS 1984
Elevation:79 ft (24 m)
Runways:2
Longest:8077 × 148 ft (2462 × 45 m), paved

Time
Time Zone:UTC+1 (DST+2)
Local Time:

Weather
METAR:LICZ 220655Z 29007KT CAVOK 20/16 Q1008 RMK SKC VIS MIN 9999 WIND THR28 29008KT A2978 BLU

Related Locations
Nearby:
Farthest:CHT: 11695 mi / 18821 km
Waitangi [Tuuta], Chatham Islands, NZ

Find:

   beyond  
but within

Other Information
Maps:
NOTAMs:
Links:
Sources:

  
flag of Italy
flag of Sicily
  

Airport Diagram

Airport diagram for NSY

Airport diagram (OBSOLETE) from NGA

Sectional Chart

Flight Planning
at skyvector.com

Satellite Image

Google Maps Satellite View

 

Copyright © 2004-2014 Karl L. Swartz. All rights reserved.
The Great Circle Mapper name and logo are trademarks of the Great Circle Mapper.
All other trademarks mentioned herein belong to their respective owners.
Please see credits for attibutions and further copyright information.

  Follow gcmap on Facebook Follow gcmap on Twitter

hCard Microformat

Geo Microformat